Time;durP1;ratioP1;P1;durP2;ratioP2;P2;SDS_P1;SDS_P2;PMS_P1;PMS_P2;Temp;Humidity;BMP_temperature;BMP_pressure;BME280_temperature;BME280_humidity;BME280_pressure;Samples;Min_cycle;Max_cycle;Signal;HPM_P1;HPM_P2
2022/08/31 00:06:04;;;;;;;11.20;6.60;;;27.90;61.20;;;;;;5074063;28;20047;-78
2022/08/31 00:08:31;;;;;;;12.93;7.53;;;28.00;61.00;;;;;;5073341;28;20032;-80
2022/08/31 00:10:57;;;;;;;11.90;6.95;;;28.00;60.90;;;;;;5055801;28;20025;-79
2022/08/31 00:13:25;;;;;;;7.10;5.90;;;27.90;61.10;;;;;;5073973;28;20021;-79
2022/08/31 00:15:52;;;;;;;11.73;6.43;;;27.90;61.00;;;;;;5073397;28;20037;-80
2022/08/31 00:18:18;;;;;;;8.45;6.30;;;27.80;61.50;;;;;;5073289;28;20438;-79
2022/08/31 00:20:45;;;;;;;10.02;7.00;;;27.80;61.40;;;;;;5055622;28;20485;-79
2022/08/31 00:23:13;;;;;;;9.05;6.43;;;27.80;61.10;;;;;;5073331;28;20024;-78
2022/08/31 00:25:40;;;;;;;8.02;6.00;;;27.70;61.60;;;;;;5073469;28;20078;-78
2022/08/31 00:28:08;;;;;;;8.27;6.60;;;27.60;61.20;;;;;;5055284;28;20036;-78
2022/08/31 00:30:35;;;;;;;7.75;6.78;;;27.20;62.60;;;;;;5073177;28;20021;-78
2022/08/31 00:33:01;;;;;;;8.90;6.40;;;27.20;62.70;;;;;;5055533;28;20028;-79
2022/08/31 00:35:29;;;;;;;8.73;6.25;;;27.20;62.60;;;;;;5073218;28;20031;-79
2022/08/31 00:37:55;;;;;;;11.43;7.18;;;27.30;62.70;;;;;;5055064;28;20068;-79
2022/08/31 00:40:21;;;;;;;8.38;7.25;;;27.20;62.40;;;;;;5055407;28;20025;-79
2022/08/31 00:42:47;;;;;;;8.80;6.78;;;27.40;62.00;;;;;;5073406;28;20432;-80
2022/08/31 00:45:13;;;;;;;9.55;6.57;;;27.50;61.80;;;;;;5073134;28;20054;-78
2022/08/31 00:47:39;;;;;;;10.30;6.93;;;27.20;62.50;;;;;;5073056;28;20082;-79
2022/08/31 00:50:08;;;;;;;12.10;6.55;;;26.90;63.70;;;;;;5055170;28;20029;-79
2022/08/31 00:52:38;;;;;;;10.15;6.43;;;26.90;63.90;;;;;;5073005;28;20021;-79
2022/08/31 00:55:07;;;;;;;10.35;7.78;;;26.70;64.30;;;;;;5072901;28;20083;-78
2022/08/31 00:57:36;;;;;;;12.88;6.97;;;26.90;63.20;;;;;;5055046;28;20040;-79
2022/08/31 01:00:06;;;;;;;9.52;7.35;;;27.00;62.80;;;;;;5072672;28;20376;-79
2022/08/31 01:02:33;;;;;;;11.02;7.90;;;27.10;62.40;;;;;;5055100;28;20480;-79
2022/08/31 01:04:58;;;;;;;12.05;7.18;;;27.00;62.70;;;;;;5055154;28;20424;-80
2022/08/31 01:07:25;;;;;;;12.25;7.63;;;27.10;62.60;;;;;;5054671;28;20047;-82
2022/08/31 01:09:51;;;;;;;9.05;6.97;;;27.20;62.20;;;;;;5072763;28;20539;-79
2022/08/31 01:12:17;;;;;;;11.02;6.88;;;27.20;62.00;;;;;;5054752;28;20028;-78
2022/08/31 01:14:43;;;;;;;9.52;7.13;;;27.20;62.10;;;;;;5072262;28;20036;-78
2022/08/31 01:17:09;;;;;;;7.32;6.25;;;27.00;62.70;;;;;;5054538;28;20094;-78
2022/08/31 01:20:02;;;;;;;8.00;6.97;;;26.90;63.20;;;;;;5072730;28;20448;-78
2022/08/31 01:23:08;;;;;;;8.48;6.97;;;27.00;63.20;;;;;;5062734;28;20060;-79
2022/08/31 01:25:37;;;;;;;11.48;7.63;;;26.80;63.30;;;;;;5054167;28;20131;-78
2022/08/31 01:28:05;;;;;;;10.27;7.25;;;27.00;63.20;;;;;;5072317;28;20506;-79
2022/08/31 01:30:31;;;;;;;11.57;7.60;;;27.10;63.10;;;;;;5054535;28;20422;-78
2022/08/31 01:32:57;;;;;;;9.55;8.07;;;27.30;62.80;;;;;;5054494;28;20032;-81
2022/08/31 01:35:22;;;;;;;9.60;8.00;;;27.50;62.40;;;;;;5054621;28;20108;-79
2022/08/31 01:37:49;;;;;;;11.52;7.78;;;27.60;62.40;;;;;;5072397;28;20032;-79
2022/08/31 01:40:15;;;;;;;10.27;7.38;;;27.60;62.30;;;;;;5072334;28;20025;-78
2022/08/31 01:42:40;;;;;;;12.65;8.65;;;27.60;62.10;;;;;;5072627;28;20017;-80
2022/08/31 01:45:07;;;;;;;12.75;8.10;;;27.60;62.20;;;;;;5072195;28;20107;-79
2022/08/31 01:47:33;;;;;;;10.50;7.57;;;27.40;62.40;;;;;;5054176;28;20475;-79
2022/08/31 01:49:59;;;;;;;8.48;7.40;;;27.50;62.20;;;;;;5072487;28;20070;-78
2022/08/31 01:52:26;;;;;;;10.75;7.78;;;27.40;62.40;;;;;;5072448;28;20066;-79
2022/08/31 01:54:52;;;;;;;9.00;7.22;;;27.50;61.80;;;;;;5054688;28;20475;-78
2022/08/31 01:57:17;;;;;;;10.90;8.60;;;27.50;61.50;;;;;;5072268;28;20040;-79
2022/08/31 01:59:43;;;;;;;8.85;7.95;;;27.60;61.70;;;;;;5054143;28;20083;-78
2022/08/31 02:02:09;;;;;;;11.85;8.30;;;27.60;61.50;;;;;;5072209;28;20103;-78
2022/08/31 02:04:34;;;;;;;11.18;7.88;;;27.50;61.70;;;;;;5072213;28;20464;-79
2022/08/31 02:07:00;;;;;;;12.32;8.55;;;27.50;61.70;;;;;;5054020;28;20047;-79
2022/08/31 02:09:28;;;;;;;10.10;8.20;;;27.50;62.00;;;;;;5071837;28;20407;-79
2022/08/31 02:11:53;;;;;;;10.65;7.47;;;27.40;62.00;;;;;;5054183;28;20476;-80
2022/08/31 02:14:20;;;;;;;11.05;7.43;;;27.40;62.10;;;;;;5071829;28;20039;-78
2022/08/31 02:16:48;;;;;;;8.52;7.00;;;27.40;62.00;;;;;;5072022;28;20045;-78
2022/08/31 02:19:13;;;;;;;9.07;7.28;;;27.30;62.60;;;;;;5071877;28;20572;-78
2022/08/31 02:21:39;;;;;;;9.13;7.47;;;27.20;62.30;;;;;;5054249;28;20021;-78
2022/08/31 02:24:06;;;;;;;9.18;6.97;;;27.40;62.00;;;;;;5071852;28;20395;-78
2022/08/31 02:26:32;;;;;;;12.73;8.43;;;27.40;61.70;;;;;;5071852;28;20028;-78
2022/08/31 02:28:57;;;;;;;8.45;7.03;;;27.40;61.90;;;;;;5072011;28;20547;-79
2022/08/31 02:31:23;;;;;;;10.70;7.25;;;27.40;61.80;;;;;;5054099;28;20490;-78
2022/08/31 02:33:49;;;;;;;10.25;7.28;;;27.30;62.00;;;;;;5071467;28;20027;-79
2022/08/31 02:36:15;;;;;;;9.85;7.78;;;27.30;61.90;;;;;;5054499;28;20383;-83
2022/08/31 02:38:41;;;;;;;11.75;7.07;;;27.40;61.80;;;;;;5075570;28;20075;-78
2022/08/31 02:41:07;;;;;;;10.57;8.00;;;27.40;61.50;;;;;;5075220;28;20107;-78
2022/08/31 02:43:33;;;;;;;9.50;6.90;;;27.50;61.20;;;;;;5075228;28;20376;-78
2022/08/31 02:45:59;;;;;;;8.23;6.75;;;27.50;61.10;;;;;;5057547;28;20028;-79
2022/08/31 02:48:24;;;;;;;9.60;7.07;;;27.00;62.80;;;;;;5075264;28;20024;-79
2022/08/31 02:50:51;;;;;;;10.30;7.28;;;26.80;63.20;;;;;;5057502;28;20527;-78
2022/08/31 02:53:21;;;;;;;11.25;6.68;;;26.70;63.40;;;;;;5057443;28;20048;-78
2022/08/31 02:55:48;;;;;;;9.75;7.50;;;26.80;62.80;;;;;;5075117;28;20016;-78
2022/08/31 02:58:14;;;;;;;10.50;7.60;;;26.90;62.70;;;;;;5057231;28;20036;-80
2022/08/31 03:00:45;;;;;;;10.73;7.57;;;26.60;63.80;;;;;;5057227;28;20029;-78
2022/08/31 03:03:11;;;;;;;11.73;7.78;;;26.60;63.80;;;;;;5057003;28;20085;-78
2022/08/31 03:05:36;;;;;;;10.85;8.20;;;26.90;62.90;;;;;;5074737;28;20029;-78
2022/08/31 03:08:02;;;;;;;10.30;7.68;;;27.00;62.80;;;;;;5075190;28;20499;-78
2022/08/31 03:10:28;;;;;;;9.80;7.47;;;27.00;62.60;;;;;;5056542;28;20020;-78
2022/08/31 03:12:54;;;;;;;11.63;9.20;;;27.10;62.70;;;;;;5056754;28;20483;-78
2022/08/31 03:15:21;;;;;;;12.45;8.88;;;27.10;62.50;;;;;;5074942;28;20089;-79
2022/08/31 03:17:47;;;;;;;11.15;8.48;;;27.00;62.70;;;;;;5074877;28;20439;-79
2022/08/31 03:20:14;;;;;;;9.70;7.30;;;27.00;62.80;;;;;;5056789;28;20025;-79
2022/08/31 03:22:40;;;;;;;13.25;8.52;;;27.00;62.70;;;;;;5056942;28;20028;-78
2022/08/31 03:25:08;;;;;;;10.50;7.72;;;27.10;62.60;;;;;;5074722;28;20130;-79
2022/08/31 03:27:36;;;;;;;10.63;7.72;;;27.10;62.50;;;;;;5056639;28;20407;-83
2022/08/31 03:30:05;;;;;;;10.20;7.40;;;27.10;62.70;;;;;;5056771;28;20426;-79
2022/08/31 03:32:31;;;;;;;11.20;7.93;;;27.10;63.60;;;;;;5074095;28;20024;-78
2022/08/31 03:34:59;;;;;;;11.52;8.93;;;27.10;63.00;;;;;;5074595;28;20063;-78
2022/08/31 03:37:26;;;;;;;10.35;8.02;;;27.10;62.90;;;;;;5074447;28;20090;-78
2022/08/31 03:39:52;;;;;;;11.90;8.15;;;27.10;63.00;;;;;;5074461;28;20020;-79
2022/08/31 03:42:18;;;;;;;11.65;7.50;;;27.10;62.90;;;;;;5074168;28;20107;-79
2022/08/31 03:44:45;;;;;;;16.40;9.23;;;27.00;63.40;;;;;;5074357;28;20028;-78
2022/08/31 03:47:11;;;;;;;15.80;9.13;;;26.90;63.40;;;;;;5056085;28;20495;-79
2022/08/31 03:49:37;;;;;;;9.27;8.13;;;26.80;63.40;;;;;;5073993;28;20029;-78
2022/08/31 03:52:03;;;;;;;11.88;8.40;;;26.90;63.10;;;;;;5074254;28;20033;-78
2022/08/31 03:54:29;;;;;;;10.70;7.65;;;27.00;62.70;;;;;;5074100;28;20104;-78
2022/08/31 03:56:55;;;;;;;10.82;7.93;;;26.90;63.00;;;;;;5056226;28;20094;-78
2022/08/31 03:59:20;;;;;;;11.10;7.32;;;27.00;62.80;;;;;;5074068;28;20032;-79
2022/08/31 04:01:46;;;;;;;11.23;7.00;;;27.00;62.40;;;;;;5056117;28;20028;-78
2022/08/31 04:04:12;;;;;;;12.52;7.55;;;26.70;63.90;;;;;;5073774;28;20032;-78
2022/08/31 04:06:45;;;;;;;14.45;8.68;;;26.30;64.80;;;;;;5074003;28;20021;-79
2022/08/31 04:09:12;;;;;;;11.13;7.88;;;26.10;65.30;;;;;;5055887;28;20039;-79
2022/08/31 04:11:42;;;;;;;9.95;7.90;;;26.40;64.40;;;;;;5073699;28;20434;-79
2022/08/31 04:14:08;;;;;;;11.70;7.18;;;26.60;63.40;;;;;;5073938;28;20422;-79
2022/08/31 04:16:35;;;;;;;10.45;8.23;;;26.70;62.90;;;;;;5056195;28;20106;-87
2022/08/31 04:19:02;;;;;;;21.30;8.35;;;26.50;63.70;;;;;;5056756;28;20040;-94
2022/08/31 04:21:32;;;;;;;8.48;7.30;;;26.60;63.70;;;;;;5057947;28;20025;-79
2022/08/31 04:23:59;;;;;;;10.02;8.07;;;26.70;63.10;;;;;;5074123;28;20047;-94
2022/08/31 04:26:34;;;;;;;10.73;8.55;;;26.60;63.00;;;;;;5074085;28;20021;-79
2022/08/31 04:29:00;;;;;;;11.68;8.52;;;26.70;62.80;;;;;;5073607;28;20024;-79
2022/08/31 04:31:27;;;;;;;10.50;7.32;;;26.40;63.80;;;;;;5073515;28;20036;-78
2022/08/31 04:33:55;;;;;;;13.60;8.27;;;26.20;64.30;;;;;;5073142;28;20376;-79
2022/08/31 04:36:23;;;;;;;9.07;7.47;;;26.20;64.50;;;;;;5055525;28;20498;-79
2022/08/31 04:38:51;;;;;;;11.63;7.05;;;26.30;65.00;;;;;;5055450;28;20036;-79
2022/08/31 04:41:20;;;;;;;10.20;7.68;;;26.30;65.10;;;;;;5055242;28;20083;-79
2022/08/31 04:43:49;;;;;;;9.20;7.50;;;26.50;64.60;;;;;;5073369;28;20107;-79
2022/08/31 04:46:16;;;;;;;9.90;7.22;;;26.80;63.90;;;;;;5072951;28;20349;-79
2022/08/31 04:48:42;;;;;;;10.70;7.75;;;27.00;63.30;;;;;;5055005;28;20030;-79
2022/08/31 04:51:23;;;;;;;11.98;8.40;;;27.10;63.20;;;;;;5072741;28;20033;-79
2022/08/31 04:53:49;;;;;;;8.27;6.60;;;27.20;62.70;;;;;;5073023;28;20028;-79
2022/08/31 04:56:18;;;;;;;12.00;6.53;;;27.20;62.50;;;;;;5055077;28;20387;-81
2022/08/31 04:58:47;;;;;;;7.47;5.70;;;27.00;62.80;;;;;;5054467;28;20387;-78
2022/08/31 05:01:15;;;;;;;9.95;6.00;;;27.00;62.50;;;;;;5054642;28;20115;-78
2022/08/31 05:03:42;;;;;;;10.35;6.68;;;27.20;62.50;;;;;;5054929;28;20451;-79
2022/08/31 05:06:19;;;;;;;11.10;7.00;;;27.40;61.80;;;;;;5072918;28;20517;-80
2022/08/31 05:08:45;;;;;;;9.93;5.93;;;27.50;61.80;;;;;;5054921;28;20032;-79
2022/08/31 05:11:14;;;;;;;9.93;7.50;;;27.60;61.20;;;;;;5072448;28;20383;-79
2022/08/31 05:13:41;;;;;;;11.93;6.88;;;27.70;61.30;;;;;;5072713;28;20025;-79
2022/08/31 05:16:09;;;;;;;8.00;7.20;;;27.70;61.30;;;;;;5054632;28;20462;-81
2022/08/31 05:18:37;;;;;;;10.40;6.50;;;27.70;61.40;;;;;;5072436;28;20044;-79
2022/08/31 05:21:10;;;;;;;9.63;6.20;;;27.60;62.00;;;;;;5054560;28;20125;-78
2022/08/31 05:23:36;;;;;;;8.10;6.15;;;27.40;61.90;;;;;;5054659;28;20024;-78
2022/08/31 05:26:02;;;;;;;9.02;6.38;;;27.40;61.80;;;;;;5073275;28;20126;-78
2022/08/31 05:28:28;;;;;;;7.93;6.15;;;27.40;61.70;;;;;;5072487;28;20048;-78
2022/08/31 05:30:56;;;;;;;8.65;5.20;;;27.40;61.70;;;;;;5054444;28;20034;-82
2022/08/31 05:33:22;;;;;;;7.45;5.32;;;27.50;60.10;;;;;;5072702;28;20426;-79
2022/08/31 05:35:47;;;;;;;7.70;5.57;;;27.60;58.90;;;;;;5054209;28;20475;-78
2022/08/31 05:38:13;;;;;;;8.13;5.40;;;27.60;59.70;;;;;;5054555;28;20077;-78
2022/08/31 05:40:39;;;;;;;7.30;4.88;;;27.60;60.20;;;;;;5072773;28;20467;-78
2022/08/31 05:43:04;;;;;;;6.80;5.20;;;27.60;58.50;;;;;;5054382;28;20037;-78
2022/08/31 05:45:30;;;;;;;7.80;4.88;;;27.80;58.40;;;;;;5073122;28;20044;-81
2022/08/31 05:47:56;;;;;;;6.15;5.00;;;28.10;57.10;;;;;;5054992;28;20079;-78
2022/08/31 05:50:22;;;;;;;7.07;4.72;;;28.30;56.70;;;;;;5054958;28;20170;-79
2022/08/31 05:52:47;;;;;;;8.48;5.30;;;28.40;56.40;;;;;;5054403;28;20024;-79
2022/08/31 05:55:13;;;;;;;6.30;4.80;;;28.50;56.50;;;;;;5072695;28;20498;-79
2022/08/31 05:57:39;;;;;;;7.20;4.88;;;28.60;55.40;;;;;;5054772;28;20029;-78
2022/08/31 06:00:09;;;;;;;7.70;4.60;;;28.60;56.30;;;;;;5072067;28;20033;-79
2022/08/31 06:02:36;;;;;;;7.03;4.60;;;28.40;57.10;;;;;;5072377;28;20023;-78
2022/08/31 06:05:02;;;;;;;8.27;4.43;;;28.40;55.80;;;;;;5054343;28;20039;-77
2022/08/31 06:07:28;;;;;;;6.70;4.45;;;28.50;56.20;;;;;;5054207;28;20048;-78
2022/08/31 06:09:54;;;;;;;7.40;4.65;;;28.70;55.80;;;;;;5072218;28;20479;-78
2022/08/31 06:12:24;;;;;;;9.02;4.60;;;28.90;55.00;;;;;;5076016;28;20415;-78
2022/08/31 06:14:49;;;;;;;9.73;4.80;;;29.00;55.60;;;;;;5058396;28;20024;-78
2022/08/31 06:17:16;;;;;;;7.68;5.00;;;28.90;55.30;;;;;;5076385;28;20056;-82
2022/08/31 06:19:42;;;;;;;5.57;4.47;;;29.00;56.60;;;;;;5076467;28;20055;-78
2022/08/31 06:22:08;;;;;;;11.07;4.50;;;29.00;56.70;;;;;;5076028;28;20024;-81
2022/08/31 06:24:35;;;;;;;6.25;4.60;;;29.00;57.20;;;;;;5085933;28;20024;-85
2022/08/31 06:27:06;;;;;;;6.30;4.43;;;28.80;56.00;;;;;;5074444;28;20020;-90
2022/08/31 06:29:32;;;;;;;9.02;4.43;;;28.60;55.70;;;;;;5093476;28;21468;-79
2022/08/31 06:31:59;;;;;;;11.10;4.45;;;28.50;55.80;;;;;;5088072;28;20052;-80
2022/08/31 06:34:27;;;;;;;6.68;4.10;;;28.30;56.30;;;;;;5067734;28;20036;-79
2022/08/31 06:36:53;;;;;;;5.72;4.40;;;28.30;56.60;;;;;;5082621;28;20103;-79
2022/08/31 06:39:19;;;;;;;8.60;4.47;;;28.40;57.70;;;;;;5058973;28;20047;-91
2022/08/31 06:41:45;;;;;;;5.10;4.10;;;28.70;55.90;;;;;;5058321;28;20020;-83
2022/08/31 06:44:12;;;;;;;7.28;4.30;;;29.00;55.60;;;;;;5083403;28;20035;-85
2022/08/31 06:46:39;;;;;;;6.13;4.50;;;29.00;55.90;;;;;;5083965;28;20043;-88
2022/08/31 06:49:06;;;;;;;9.73;4.20;;;29.10;55.00;;;;;;5075891;28;20028;-81
2022/08/31 06:51:36;;;;;;;7.30;4.20;;;29.20;56.00;;;;;;5075848;28;20024;-87
2022/08/31 06:54:07;;;;;;;5.60;4.10;;;29.30;54.70;;;;;;5086412;28;20029;-84
2022/08/31 06:56:34;;;;;;;5.57;4.53;;;29.00;56.40;;;;;;5090607;28;20028;-81
2022/08/31 06:59:00;;;;;;;8.73;4.30;;;29.20;56.20;;;;;;5069271;28;20457;-77
2022/08/31 07:01:28;;;;;;;5.13;4.13;;;29.40;56.40;;;;;;5088619;28;20031;-88
2022/08/31 07:03:56;;;;;;;5.95;4.30;;;29.40;55.10;;;;;;5065640;28;20028;-88
2022/08/31 07:06:24;;;;;;;5.20;4.20;;;29.60;54.70;;;;;;5087863;28;20028;-78
2022/08/31 07:08:55;;;;;;;7.20;4.15;;;30.00;54.50;;;;;;5067828;28;20032;-86
2022/08/31 07:11:27;;;;;;;6.70;4.25;;;30.20;54.70;;;;;;5064246;28;20020;-82
2022/08/31 07:13:54;;;;;;;6.35;4.63;;;30.50;54.00;;;;;;5059402;28;20486;-80
2022/08/31 07:16:22;;;;;;;6.45;4.30;;;30.50;54.70;;;;;;5086574;28;20064;-84
2022/08/31 07:18:49;;;;;;;5.60;4.15;;;30.50;53.50;;;;;;5065002;28;20036;-80
2022/08/31 07:21:16;;;;;;;7.45;4.20;;;30.50;53.50;;;;;;5064858;28;20486;-83
2022/08/31 07:23:43;;;;;;;5.47;4.30;;;30.60;53.90;;;;;;5062128;28;20032;-82
2022/08/31 07:26:13;;;;;;;6.32;4.38;;;30.80;53.90;;;;;;5061395;28;20019;-82
2022/08/31 07:28:42;;;;;;;6.30;4.30;;;30.90;54.00;;;;;;5060373;28;20028;-82
2022/08/31 07:31:10;;;;;;;5.30;4.15;;;31.10;53.90;;;;;;5076514;28;20023;-82
2022/08/31 07:33:40;;;;;;;6.40;4.05;;;31.10;53.80;;;;;;5080744;28;20029;-80
2022/08/31 07:36:09;;;;;;;5.82;4.53;;;31.10;54.30;;;;;;5085655;28;20016;-80
2022/08/31 07:44:07;;;;;;;11.95;4.10;;;30.30;53.40;;;;;;5083488;28;20039;-90
2022/08/31 07:46:34;;;;;;;7.53;4.28;;;29.20;55.50;;;;;;5057693;28;20037;-88
2022/08/31 07:49:00;;;;;;;6.03;3.97;;;28.40;57.10;;;;;;5075323;28;20020;-82
2022/08/31 07:51:26;;;;;;;5.78;3.97;;;28.80;56.40;;;;;;5075188;28;20498;-85
2022/08/31 07:53:53;;;;;;;6.65;4.25;;;29.50;55.10;;;;;;5074723;28;20507;-75
2022/08/31 07:56:22;;;;;;;5.30;3.65;;;30.10;54.70;;;;;;5064204;28;20019;-78
2022/08/31 07:58:48;;;;;;;5.85;4.03;;;30.10;54.10;;;;;;5089108;28;20032;-88
2022/08/31 08:01:16;;;;;;;6.30;4.05;;;29.50;55.50;;;;;;5056886;28;20035;-87
2022/08/31 08:03:43;;;;;;;6.65;3.83;;;29.50;56.40;;;;;;5063275;28;20024;-84
2022/08/31 08:06:14;;;;;;;6.47;4.13;;;29.30;55.70;;;;;;5093016;28;20123;-89
2022/08/31 08:08:44;;;;;;;6.45;4.18;;;29.60;54.90;;;;;;5074910;28;20029;-81
2022/08/31 08:11:17;;;;;;;5.90;3.77;;;30.00;53.50;;;;;;5056547;28;20028;-82
2022/08/31 08:13:44;;;;;;;6.13;3.70;;;29.80;52.90;;;;;;5068691;28;20035;-85
2022/08/31 08:16:10;;;;;;;5.68;4.05;;;29.60;54.10;;;;;;5055993;28;20040;-86
2022/08/31 08:18:35;;;;;;;7.80;4.22;;;30.00;53.30;;;;;;5060689;28;20036;-78
2022/08/31 08:21:01;;;;;;;6.22;4.40;;;30.40;52.90;;;;;;5070498;28;20031;-79
2022/08/31 08:23:27;;;;;;;9.45;4.03;;;30.90;52.30;;;;;;5074246;28;20028;-95
2022/08/31 08:25:52;;;;;;;6.65;4.15;;;31.30;52.10;;;;;;5082915;28;20465;-86
2022/08/31 08:28:20;;;;;;;6.25;4.20;;;31.50;51.50;;;;;;5056086;28;20028;-84
2022/08/31 08:30:53;;;;;;;5.50;3.88;;;31.60;52.80;;;;;;5082465;28;20016;-81
2022/08/31 08:33:20;;;;;;;6.70;4.53;;;31.60;50.70;;;;;;5064788;28;20032;-88
2022/08/31 08:35:54;;;;;;;5.57;4.28;;;31.60;51.30;;;;;;5077052;28;20020;-80
2022/08/31 08:38:19;;;;;;;6.25;4.53;;;31.60;51.30;;;;;;5075490;28;20033;-81
2022/08/31 08:40:45;;;;;;;7.70;4.22;;;31.70;52.10;;;;;;5067493;28;20034;-86
2022/08/31 08:43:15;;;;;;;6.38;4.25;;;32.00;52.40;;;;;;5083157;28;20429;-80
2022/08/31 08:45:42;;;;;;;7.43;4.43;;;32.10;52.40;;;;;;5077570;28;20099;-78
2022/08/31 08:48:12;;;;;;;5.68;4.30;;;32.30;51.40;;;;;;5072436;28;20029;-80
2022/08/31 08:50:40;;;;;;;6.50;4.45;;;31.90;51.70;;;;;;5085439;28;20065;-86
2022/08/31 08:53:11;;;;;;;5.68;4.40;;;31.90;52.00;;;;;;5076029;28;20036;-86
2022/08/31 08:55:39;;;;;;;8.32;4.80;;;32.10;52.60;;;;;;5056177;28;20023;-85
2022/08/31 08:58:09;;;;;;;7.45;4.15;;;32.30;52.80;;;;;;5074470;28;20119;-86
2022/08/31 09:00:37;;;;;;;8.75;3.90;;;32.30;51.10;;;;;;5074877;28;20523;-79
2022/08/31 09:03:26;;;;;;;5.22;4.07;;;32.30;51.30;;;;;;5075747;28;20036;-78
2022/08/31 09:06:20;;;;;;;6.75;4.40;;;32.30;51.60;;;;;;5070895;28;20020;-80
2022/08/31 09:09:07;;;;;;;8.32;4.57;;;32.30;51.70;;;;;;5056428;28;20028;-87
2022/08/31 09:12:10;;;;;;;7.57;4.15;;;32.20;51.80;;;;;;5081955;28;20545;-83
2022/08/31 09:14:58;;;;;;;7.15;4.20;;;31.80;51.10;;;;;;5055545;28;20058;-80
2022/08/31 09:17:33;;;;;;;6.35;4.32;;;31.30;52.10;;;;;;5054921;28;20098;-79
2022/08/31 09:20:00;;;;;;;5.38;4.15;;;31.60;52.90;;;;;;5057349;28;20117;-82
2022/08/31 09:22:27;;;;;;;6.40;4.30;;;31.40;52.20;;;;;;5075788;28;20526;-83
2022/08/31 09:24:55;;;;;;;6.25;3.83;;;31.40;52.00;;;;;;5087893;28;20066;-81
2022/08/31 09:27:45;;;;;;;6.15;4.50;;;31.70;51.80;;;;;;5066608;28;20039;-90
2022/08/31 09:30:16;;;;;;;8.73;4.07;;;31.90;51.10;;;;;;5064926;28;20047;-88
2022/08/31 09:32:56;;;;;;;9.48;4.20;;;32.30;51.30;;;;;;5062816;28;20158;-90
2022/08/31 09:35:39;;;;;;;8.88;4.50;;;32.40;50.80;;;;;;5062464;28;20020;-90
2022/08/31 09:38:11;;;;;;;5.45;3.83;;;32.30;51.20;;;;;;5077576;28;20040;-88
2022/08/31 09:40:51;;;;;;;6.00;3.83;;;32.40;51.30;;;;;;5074698;28;20024;-87
2022/08/31 09:43:36;;;;;;;5.53;4.13;;;32.70;50.00;;;;;;5075496;28;20062;-92
2022/08/31 09:46:26;;;;;;;7.20;4.25;;;33.20;50.10;;;;;;5081072;28;20048;-89
2022/08/31 09:48:57;;;;;;;6.97;3.85;;;33.40;49.80;;;;;;5059680;28;20060;-80
2022/08/31 09:51:25;;;;;;;;;;;33.00;49.70;;;;;;5060325;28;20033;-85
2022/08/31 09:56:57;;;;;;;5.97;4.13;;;32.50;50.20;;;;;;5015442;28;20029;-82
2022/08/31 09:59:32;;;;;;;5.60;4.35;;;32.80;50.40;;;;;;5014490;28;20041;-77
2022/08/31 10:02:01;;;;;;;7.00;4.55;;;33.30;51.20;;;;;;4998547;28;20533;-87
2022/08/31 10:04:30;;;;;;;5.20;4.20;;;33.70;49.20;;;;;;5010772;28;20026;-87
2022/08/31 10:07:16;;;;;;;5.47;3.92;;;33.80;49.00;;;;;;4999083;28;20026;-91
2022/08/31 10:09:53;;;;;;;4.85;3.83;;;34.00;49.90;;;;;;4995641;28;20038;-86
2022/08/31 10:12:27;;;;;;;5.18;4.10;;;34.00;48.70;;;;;;4996049;28;20026;-90
2022/08/31 10:15:02;;;;;;;6.93;4.13;;;34.20;49.80;;;;;;5012963;28;20057;-83
2022/08/31 10:17:41;;;;;;;8.73;4.40;;;34.70;49.00;;;;;;4993642;28;20513;-92
2022/08/31 10:20:15;;;;;;;9.98;4.35;;;34.40;48.60;;;;;;5007836;28;20040;-87
2022/08/31 10:22:47;;;;;;;5.13;4.10;;;34.30;49.00;;;;;;4995544;28;20029;-93
2022/08/31 10:25:22;;;;;;;8.65;4.18;;;34.60;48.90;;;;;;4997310;28;20033;-84
2022/08/31 10:28:06;;;;;;;6.07;4.20;;;34.00;48.70;;;;;;5032233;28;20606;-85
2022/08/31 10:30:48;;;;;;;5.63;3.95;;;34.00;50.20;;;;;;5062771;28;20021;-84
2022/08/31 10:33:24;;;;;;;4.95;4.00;;;34.30;49.90;;;;;;5062831;28;20028;-84
2022/08/31 10:35:56;;;;;;;5.25;4.18;;;34.60;51.00;;;;;;5085431;28;20020;-80
2022/08/31 10:38:41;;;;;;;6.53;3.92;;;34.80;49.80;;;;;;5077668;28;20047;-89
2022/08/31 10:41:16;;;;;;;7.20;4.10;;;34.40;49.10;;;;;;5086398;28;20037;-80
2022/08/31 10:43:49;;;;;;;8.52;4.13;;;34.20;49.70;;;;;;5058543;28;20029;-80
2022/08/31 10:46:15;;;;;;;5.88;3.88;;;34.20;49.10;;;;;;5083098;28;20017;-84
2022/08/31 10:48:49;;;;;;;7.60;3.80;;;34.50;48.90;;;;;;5079505;28;20406;-82
2022/08/31 10:51:26;;;;;;;6.72;3.80;;;34.30;49.30;;;;;;5064125;28;20023;-79
2022/08/31 10:54:32;;;;;;;5.85;4.22;;;33.50;48.40;;;;;;5093076;28;20123;-81
2022/08/31 10:57:36;;;;;;;4.97;3.80;;;33.50;48.40;;;;;;4990773;28;20023;-80
2022/08/31 11:00:07;;;;;;;6.50;4.03;;;34.10;49.00;;;;;;4979234;28;20040;-80
2022/08/31 11:02:58;;;;;;;5.30;3.90;;;34.50;48.70;;;;;;4977651;28;20038;-80
2022/08/31 11:05:36;;;;;;;4.82;3.70;;;34.00;47.60;;;;;;4989651;28;20077;-81
2022/08/31 11:08:27;;;;;;;4.88;3.80;;;33.70;49.90;;;;;;4978135;28;20041;-87
2022/08/31 11:10:55;;;;;;;7.78;4.38;;;33.80;49.50;;;;;;4993672;28;20047;-82
2022/08/31 11:13:37;;;;;;;7.00;3.65;;;34.00;49.10;;;;;;4976526;28;20023;-80
2022/08/31 11:16:14;;;;;;;5.72;3.55;;;33.90;48.00;;;;;;4975950;28;20487;-86
2022/08/31 11:19:04;;;;;;;4.78;3.65;;;33.60;49.30;;;;;;4992435;28;20146;-79
2022/08/31 11:21:52;;;;;;;5.38;3.90;;;33.80;49.20;;;;;;4919886;29;20122;-93
2022/08/31 11:25:02;;;;;;;6.90;4.03;;;33.70;48.30;;;;;;4936228;29;20106;-89
2022/08/31 11:27:35;;;;;;;6.95;4.00;;;33.90;49.60;;;;;;4919869;29;20079;-81
2022/08/31 11:30:22;;;;;;;4.82;3.65;;;34.30;49.20;;;;;;4920226;29;20490;-88
2022/08/31 11:32:52;;;;;;;6.53;3.47;;;34.50;48.60;;;;;;4946537;28;20067;-90
2022/08/31 11:35:48;;;;;;;5.22;3.42;;;34.40;48.40;;;;;;5013896;28;20072;-83
2022/08/31 11:39:00;;;;;;;5.03;3.72;;;33.70;47.40;;;;;;5013484;28;20040;-85
2022/08/31 11:41:38;;;;;;;5.40;4.18;;;33.50;49.40;;;;;;4955142;28;20042;-88
2022/08/31 11:44:06;;;;;;;4.93;3.60;;;33.30;49.20;;;;;;4955321;29;20537;-89
2022/08/31 11:46:42;;;;;;;5.20;3.60;;;33.40;49.40;;;;;;4939252;29;20410;-81
2022/08/31 11:49:09;;;;;;;5.38;3.80;;;33.90;49.50;;;;;;4954890;29;20394;-90
2022/08/31 11:51:40;;;;;;;6.30;4.13;;;34.10;48.50;;;;;;4938819;28;20094;-87
2022/08/31 11:54:40;;;;;;;7.60;3.88;;;34.30;48.30;;;;;;4955450;29;20364;-87
2022/08/31 11:57:17;;;;;;;5.60;3.75;;;33.80;48.00;;;;;;4955340;28;20031;-85
2022/08/31 11:59:45;;;;;;;4.43;3.53;;;33.50;48.80;;;;;;4976603;28;20057;-80
2022/08/31 12:02:22;;;;;;;4.45;3.70;;;33.40;48.20;;;;;;4993110;28;20018;-84
2022/08/31 12:05:01;;;;;;;6.43;4.10;;;33.70;48.90;;;;;;4993464;28;20082;-88
2022/08/31 12:07:33;;;;;;;5.95;3.85;;;34.20;49.10;;;;;;4993127;28;20029;-86
2022/08/31 12:10:31;;;;;;;5.65;3.67;;;34.50;49.30;;;;;;4993016;28;20034;-81
2022/08/31 12:13:17;;;;;;;6.88;3.92;;;34.00;48.40;;;;;;4993020;28;20094;-81
2022/08/31 12:15:59;;;;;;;4.90;3.72;;;34.10;49.10;;;;;;4992818;28;20057;-81
2022/08/31 12:25:23;;;;;;;7.15;3.55;;;34.00;49.10;;;;;;4934737;29;20047;-84
2022/08/31 12:28:01;;;;;;;6.80;3.60;;;33.70;48.30;;;;;;4935235;29;20031;-83
2022/08/31 12:30:27;;;;;;;6.35;3.60;;;33.60;48.40;;;;;;4934691;29;20035;-85
2022/08/31 12:33:13;;;;;;;8.27;3.75;;;33.40;48.80;;;;;;4934858;29;20032;-82
2022/08/31 12:35:39;;;;;;;5.68;3.50;;;33.30;48.50;;;;;;4918684;29;20145;-81
2022/08/31 12:38:15;;;;;;;5.85;3.58;;;33.20;48.50;;;;;;4934316;29;20047;-82
2022/08/31 12:40:49;;;;;;;5.53;3.63;;;33.40;48.20;;;;;;4918954;29;20068;-79
2022/08/31 12:43:19;;;;;;;6.18;3.60;;;33.90;47.80;;;;;;4918716;29;20067;-80
2022/08/31 12:46:17;;;;;;;7.07;3.42;;;34.40;47.90;;;;;;4934685;29;20023;-81
2022/08/31 12:49:06;;;;;;;6.72;3.50;;;34.20;47.30;;;;;;4896830;29;20044;-83
2022/08/31 12:51:47;;;;;;;6.47;3.33;;;34.10;47.80;;;;;;4896885;29;20029;-80
2022/08/31 12:54:17;;;;;;;6.90;3.53;;;34.10;48.00;;;;;;4896905;29;20109;-80
2022/08/31 12:57:13;;;;;;;5.70;3.85;;;34.40;48.70;;;;;;4907373;29;20048;-81
2022/08/31 13:00:18;;;;;;;4.75;3.30;;;34.60;47.90;;;;;;4934361;29;20403;-79
2022/08/31 13:02:48;;;;;;;5.10;3.50;;;34.10;47.30;;;;;;4969516;28;20034;-86
2022/08/31 13:05:30;;;;;;;5.27;3.53;;;34.10;48.00;;;;;;4972335;28;20168;-79
2022/08/31 13:07:57;;;;;;;5.38;3.97;;;34.50;48.10;;;;;;4956976;28;20664;-80
2022/08/31 13:10:27;;;;;;;4.80;3.88;;;34.60;47.70;;;;;;4972767;28;20035;-82
2022/08/31 13:12:57;;;;;;;4.40;3.40;;;34.80;47.50;;;;;;4972913;28;20035;-79
2022/08/31 13:15:38;;;;;;;5.20;3.70;;;34.80;46.70;;;;;;4956501;28;20532;-78
2022/08/31 13:18:13;;;;;;;5.07;3.55;;;34.60;46.20;;;;;;4972395;28;20467;-79
2022/08/31 13:20:42;;;;;;;5.20;3.30;;;34.70;46.00;;;;;;4972097;28;20113;-83
2022/08/31 13:23:13;;;;;;;7.53;3.50;;;34.80;46.30;;;;;;4974199;28;20030;-79
2022/08/31 13:25:40;;;;;;;4.22;3.25;;;34.90;45.80;;;;;;5073272;28;20024;-86